.
WxDataArchive / Data Records for 2011-01-31
2011-01-30 January 2011 2011-02-01

Data Records for Monday, 31 January 2011

Time	Temp	Chill	HIndex	Humid	Dewpt	 Wind 	HiWind	WindDir	Rain 	Barom 
-----	----	-----	------	-----	-----	------	------	-------	-----	----- 
00:00	14.3	14.3	14.3	65	4.7	0	0	---	0.00	30.437 
00:05	14.0	14.0	14.0	67	5.1	0	0	---	0.00	30.437 
00:10	13.6	13.6	13.6	67	4.7	0	0	---	0.00	30.437 
00:15	13.5	13.5	13.5	68	4.9	0	0	---	0.00	30.438 
00:20	13.3	13.3	13.3	69	5.1	0	0	---	0.00	30.438 
00:25	13.5	13.5	13.5	69	5.3	0	1	68	0.00	30.438 
00:30	13.8	13.8	13.8	69	5.5	0	1	68	0.00	30.439 
00:35	14.1	14.1	14.1	69	5.8	0	2	68	0.00	30.439 
00:40	14.6	14.6	14.6	68	6.0	0	2	68	0.00	30.439 
00:45	14.8	14.8	14.8	67	5.9	0	2	45	0.00	30.438 
00:50	15.1	15.1	15.1	67	6.1	0	3	45	0.00	30.438 
00:55	15.1	15.1	15.1	66	5.8	1	3	45	0.00	30.438 
01:00	15.2	15.2	15.2	66	5.9	0	2	45	0.00	30.438 
01:05	15.2	15.2	15.2	66	5.9	0	2	45	0.00	30.438 
01:10	15.2	15.2	15.2	65	5.6	0	2	135	0.00	30.438 
01:15	15.2	15.2	15.2	65	5.6	1	3	90	0.00	30.437 
01:20	15.1	15.1	15.1	65	5.5	0	2	90	0.00	30.437 
01:25	14.9	14.9	14.9	66	5.6	1	5	90	0.00	30.437 
01:30	14.9	14.9	14.9	65	5.3	1	4	90	0.00	30.435 
01:35	14.8	14.8	14.8	65	5.2	1	5	90	0.00	30.435 
01:40	14.6	14.6	14.6	66	5.3	0	2	90	0.00	30.435 
01:45	14.4	14.4	14.4	66	5.1	1	4	90	0.00	30.434 
01:50	14.3	14.3	14.3	66	5.1	0	2	90	0.00	30.434 
01:55	14.1	14.1	14.1	67	5.2	1	3	90	0.00	30.434 
02:00	14.0	14.0	14.0	67	5.1	0	2	90	0.00	30.435 
02:05	13.8	13.8	13.8	67	4.9	0	1	90	0.00	30.435 
02:10	13.6	13.6	13.6	68	5.0	0	2	90	0.00	30.435 
02:15	13.5	13.5	13.5	68	4.9	0	2	90	0.00	30.439 
02:20	13.3	13.3	13.3	68	4.7	0	0	---	0.00	30.439 
02:25	12.8	12.8	12.8	68	4.3	0	0	---	0.00	30.439 
02:30	12.4	12.4	12.4	68	3.9	0	0	---	0.00	30.448 
02:35	12.3	12.3	12.3	69	4.1	0	1	90	0.00	30.448 
02:40	12.1	12.1	12.1	70	4.2	0	2	90	0.00	30.448 
02:45	12.1	12.1	12.1	70	4.2	0	1	90	0.00	30.446 
02:50	12.3	12.3	12.3	70	4.4	0	1	90	0.00	30.446 
02:55	12.3	12.3	12.3	71	4.7	0	2	90	0.00	30.446 
03:00	12.3	12.3	12.3	71	4.7	0	1	90	0.00	30.442 
03:05	12.3	12.3	12.3	71	4.7	0	1	90	0.00	30.442 
03:10	12.4	12.4	12.4	72	5.1	0	2	90	0.00	30.442 
03:15	12.4	12.4	12.4	72	5.1	0	2	90	0.00	30.441 
03:20	12.4	12.4	12.4	72	5.1	0	2	22	0.00	30.441 
03:25	12.6	12.6	12.6	72	5.3	0	2	45	0.00	30.441 
03:30	12.6	12.6	12.6	73	5.6	0	3	45	0.00	30.436 
03:35	12.9	12.9	12.9	73	5.9	1	3	90	0.00	30.436 
03:40	13.1	13.1	13.1	73	6.1	1	4	112	0.00	30.436 
03:45	13.3	13.3	13.3	73	6.3	1	3	112	0.00	30.437 
03:50	13.3	13.3	13.3	73	6.3	1	5	112	0.00	30.437 
03:55	13.3	13.3	13.3	73	6.3	1	6	90	0.00	30.437 
04:00	13.3	13.3	13.3	73	6.3	1	5	112	0.00	30.428 
04:05	13.3	13.3	13.3	73	6.3	1	3	68	0.00	30.428 
04:10	13.1	13.1	13.1	73	6.1	1	6	90	0.00	30.428 
04:15	12.8	12.8	12.8	73	5.8	2	5	90	0.00	30.434 
04:20	12.8	12.8	12.8	73	5.8	1	4	90	0.00	30.434 
04:25	12.6	12.6	12.6	74	5.9	1	4	90	0.00	30.434 
04:30	12.4	12.4	12.4	74	5.7	1	5	90	0.00	30.438 
04:35	12.4	12.4	12.4	74	5.7	2	5	90	0.00	30.438 
04:40	12.4	12.4	12.4	74	5.7	2	7	112	0.00	30.438 
04:45	12.4	12.4	12.4	74	5.7	1	4	90	0.00	30.442 
04:50	12.4	12.4	12.4	74	5.7	2	7	112	0.00	30.442 
04:55	12.4	12.4	12.4	74	5.7	2	9	112	0.00	30.442 
05:00	12.4	12.4	12.4	74	5.7	2	10	112	0.00	30.444 
05:05	12.4	12.4	12.4	75	6.0	2	5	90	0.00	30.444 
05:10	12.4	12.4	12.4	75	6.0	3	7	90	0.00	30.444 
05:15	12.6	12.6	12.6	75	6.2	2	11	90	0.00	30.451 
05:20	12.6	5.7	12.6	75	6.2	4	9	112	0.00	30.451 
05:25	12.6	5.7	12.6	75	6.2	4	7	90	0.00	30.451 
05:30	12.6	5.7	12.6	75	6.2	4	9	112	0.00	30.444 
05:35	12.6	12.6	12.6	75	6.2	3	7	112	0.00	30.444 
05:40	12.6	12.6	12.6	76	6.5	3	9	90	0.00	30.444 
05:45	12.4	12.4	12.4	76	6.3	3	7	90	0.00	30.443 
05:50	12.4	12.4	12.4	76	6.3	3	6	90	0.00	30.443 
05:55	12.3	12.3	12.3	77	6.5	2	6	90	0.00	30.443 
06:00	12.3	12.3	12.3	77	6.5	2	5	90	0.00	30.451 
06:05	12.3	12.3	12.3	77	6.5	2	6	90	0.00	30.451 
06:10	12.3	12.3	12.3	77	6.5	2	6	90	0.00	30.451 
06:15	12.3	12.3	12.3	77	6.5	2	6	90	0.00	30.449 
06:20	12.3	12.3	12.3	77	6.5	3	7	90	0.00	30.449 
06:25	12.3	12.3	12.3	77	6.5	3	9	90	0.00	30.449 
06:30	12.3	12.3	12.3	78	6.8	2	5	90	0.00	30.449 
06:35	12.3	12.3	12.3	78	6.8	1	5	112	0.00	30.449 
06:40	12.3	12.3	12.3	78	6.8	2	5	90	0.00	30.449 
06:45	12.3	12.3	12.3	78	6.8	1	7	90	0.00	30.462 
06:50	12.3	12.3	12.3	78	6.8	1	5	90	0.00	30.462 
06:55	12.1	12.1	12.1	78	6.6	1	5	112	0.00	30.462 
07:00	12.1	12.1	12.1	77	6.3	2	7	68	0.00	30.469 
07:05	11.9	11.9	11.9	77	6.1	2	5	90	0.00	30.469 
07:10	11.9	11.9	11.9	78	6.4	2	6	90	0.00	30.469 
07:15	11.9	11.9	11.9	78	6.4	2	5	90	0.00	30.469 
07:20	11.9	11.9	11.9	77	6.1	1	6	90	0.00	30.469 
07:25	11.9	11.9	11.9	78	6.4	2	6	90	0.00	30.469 
07:30	11.7	11.7	11.7	77	5.9	1	5	90	0.00	30.479 
07:35	11.7	11.7	11.7	78	6.2	0	2	90	0.00	30.479 
07:40	11.7	11.7	11.7	78	6.2	2	6	112	0.00	30.479 
07:45	11.6	11.6	11.6	78	6.1	2	5	90	0.00	30.468 
07:50	11.4	11.4	11.4	78	5.9	3	8	90	0.00	30.468 
07:55	11.4	11.4	11.4	78	5.9	2	5	90	0.00	30.468 
08:00	11.2	11.2	11.2	78	5.7	2	5	90	0.00	30.467 
08:05	11.1	11.1	11.1	78	5.6	0	2	90	0.00	30.467 
08:10	11.1	11.1	11.1	78	5.6	1	3	135	0.00	30.467 
08:15	10.9	10.9	10.9	78	5.4	0	2	135	0.00	30.481 
08:20	10.9	10.9	10.9	79	5.7	1	3	135	0.00	30.481 
08:25	11.1	11.1	11.1	79	5.9	2	5	112	0.00	30.481 
08:30	11.2	11.2	11.2	79	6.0	2	7	90	0.00	30.468 
08:35	11.4	11.4	11.4	79	6.2	1	4	112	0.00	30.468 
08:40	11.6	11.6	11.6	78	6.1	0	3	22	0.00	30.468 
08:45	11.9	11.9	11.9	78	6.4	1	4	90	0.00	30.482 
08:50	12.3	12.3	12.3	78	6.8	2	6	112	0.00	30.482 
08:55	12.6	12.6	12.6	77	6.8	3	7	112	0.00	30.482 
09:00	13.1	13.1	13.1	77	7.3	2	5	112	0.00	30.472 
09:05	13.3	13.3	13.3	77	7.5	2	10	112	0.00	30.472 
09:10	13.5	13.5	13.5	76	7.4	2	6	112	0.00	30.472 
09:15	13.5	13.5	13.5	76	7.4	2	8	112	0.00	30.469 
09:20	13.6	13.6	13.6	76	7.5	2	9	112	0.00	30.469 
09:25	13.8	13.8	13.8	77	7.9	2	6	90	0.00	30.469 
09:30	14.0	7.3	14.0	76	7.9	4	11	90	0.00	30.465 
09:35	14.3	14.3	14.3	76	8.1	2	9	112	0.00	30.465 
09:40	14.6	14.6	14.6	75	8.1	3	11	90	0.00	30.465 
09:45	14.9	14.9	14.9	75	8.4	2	10	90	0.00	30.458 
09:50	15.2	8.7	15.2	74	8.4	4	10	112	0.00	30.458 
09:55	15.2	6.2	15.2	73	8.1	6	16	112	0.00	30.458 
10:00	15.4	8.9	15.4	73	8.3	4	11	90	0.00	30.454 
10:05	15.6	7.8	15.6	73	8.5	5	11	90	0.00	30.454 
10:10	15.7	7.9	15.7	73	8.6	5	12	90	0.00	30.454 
10:15	15.9	9.5	15.9	72	8.5	4	14	90	0.00	30.452 
10:20	15.7	6.8	15.7	72	8.3	6	14	112	0.00	30.452 
10:25	15.9	8.2	15.9	72	8.5	5	12	112	0.00	30.452 
10:30	16.2	9.8	16.2	71	8.5	4	9	112	0.00	30.448 
10:35	16.4	6.7	16.4	69	8.0	7	15	90	0.00	30.448 
10:40	16.7	10.4	16.7	69	8.3	4	10	90	0.00	30.448 
10:45	16.9	9.3	16.9	68	8.2	5	11	112	0.00	30.465 
10:50	16.9	9.3	16.9	68	8.2	5	14	90	0.00	30.465 
10:55	16.9	9.3	16.9	67	7.9	5	15	90	0.00	30.465 
11:00	16.9	8.2	16.9	67	7.9	6	12	90	0.00	30.465 
11:05	16.9	9.3	16.9	68	8.2	5	11	112	0.00	30.465 
11:10	16.9	9.3	16.9	67	7.9	5	15	90	0.00	30.465 
11:15	17.2	9.7	17.2	68	8.5	5	14	112	0.00	30.460 
11:20	17.2	8.6	17.2	67	8.2	6	14	90	0.00	30.460 
11:25	17.3	8.7	17.3	67	8.3	6	12	90	0.00	30.460 
11:30	17.5	10.0	17.5	68	8.8	5	13	112	0.00	30.448 
11:35	18.0	11.9	18.0	67	8.9	4	10	90	0.00	30.448 
11:40	18.1	10.7	18.1	67	9.0	5	14	90	0.00	30.448 
11:45	18.0	9.6	18.0	67	8.9	6	13	90	0.00	30.437 
11:50	18.1	10.7	18.1	67	9.0	5	12	90	0.00	30.437 
11:55	18.1	9.7	18.1	67	9.0	6	12	90	0.00	30.437 
12:00	18.4	12.4	18.4	67	9.3	4	9	90	0.00	30.433 
12:05	18.8	12.8	18.8	66	9.4	4	10	112	0.00	30.433 
12:10	18.9	10.6	18.9	66	9.4	6	11	112	0.00	30.433 
12:15	18.8	10.5	18.8	65	9.0	6	15	90	0.00	30.415 
12:20	18.9	9.7	18.9	62	8.1	7	13	90	0.00	30.415 
12:25	18.8	10.5	18.8	63	8.3	6	14	90	0.00	30.415 
12:30	18.9	12.9	18.9	62	8.1	4	14	90	0.00	30.399 
12:35	18.8	11.6	18.8	63	8.3	5	12	90	0.00	30.399 
12:40	18.8	11.6	18.8	63	8.3	5	13	112	0.00	30.399 
12:45	18.8	11.6	18.8	63	8.3	5	11	90	0.00	30.383 
12:50	18.9	9.7	18.9	62	8.1	7	16	112	0.00	30.383 
12:55	19.1	11.9	19.1	62	8.3	5	12	90	0.00	30.383 
13:00	19.1	11.9	19.1	62	8.3	5	12	112	0.00	30.384 
13:05	19.4	13.5	19.4	63	8.9	4	11	112	0.00	30.384 
13:10	19.4	13.5	19.4	62	8.5	4	12	90	0.00	30.384 
13:15	19.5	13.6	19.5	61	8.3	4	12	90	0.00	30.371 
13:20	19.5	12.4	19.5	60	7.9	5	12	112	0.00	30.371 
13:25	19.5	12.4	19.5	60	7.9	5	12	112	0.00	30.371 
13:30	19.9	19.9	19.9	59	7.9	2	9	45	0.00	30.363 
13:35	19.9	14.1	19.9	58	7.5	4	12	90	0.00	30.363 
13:40	19.7	12.6	19.7	57	7.0	5	12	112	0.00	30.363 
13:45	19.9	12.9	19.9	58	7.5	5	12	90	0.00	30.353 
13:50	20.2	20.2	20.2	57	7.4	3	11	90	0.00	30.353 
13:55	20.2	14.4	20.2	57	7.4	4	13	90	0.00	30.353 
14:00	19.9	11.8	19.9	55	6.4	6	13	112	0.00	30.346 
14:05	19.9	12.9	19.9	55	6.4	5	11	90	0.00	30.346 
14:10	20.2	20.2	20.2	55	6.7	2	6	112	0.00	30.346 
14:15	20.5	20.5	20.5	54	6.5	3	12	112	0.00	30.328 
14:20	20.5	20.5	20.5	54	6.5	2	10	90	0.00	30.328 
14:25	20.5	14.8	20.5	51	5.3	4	13	90	0.00	30.328 
14:30	20.3	14.6	20.3	50	4.7	4	12	112	0.00	30.321 
14:35	20.5	14.8	20.5	50	4.8	4	10	112	0.00	30.321 
14:40	20.5	20.5	20.5	52	5.7	3	12	90	0.00	30.321 
14:45	20.8	20.8	20.8	50	5.1	2	9	112	0.00	30.307 
14:50	20.8	20.8	20.8	50	5.1	3	9	112	0.00	30.307 
14:55	21.0	21.0	21.0	51	5.7	2	10	45	0.00	30.307 
15:00	20.8	12.9	20.8	47	3.8	6	14	112	0.00	30.295 
15:05	21.0	21.0	21.0	49	4.9	3	10	112	0.00	30.295 
15:10	20.8	20.8	20.8	49	4.7	2	9	45	0.00	30.295 
15:15	20.6	20.6	20.6	48	4.1	2	8	112	0.00	30.303 
15:20	20.5	13.6	20.5	48	4.0	5	16	90	0.00	30.303 
15:25	20.5	20.5	20.5	49	4.4	2	10	90	0.00	30.303 
15:30	20.5	14.8	20.5	49	4.4	4	13	90	0.00	30.307 
15:35	20.5	14.8	20.5	48	4.0	4	14	112	0.00	30.307 
15:40	20.8	20.8	20.8	50	5.1	3	9	112	0.00	30.307 
15:45	21.0	21.0	21.0	51	5.7	2	9	90	0.00	30.309 
15:50	20.8	20.8	20.8	51	5.6	3	8	45	0.00	30.309 
15:55	20.5	20.5	20.5	53	6.1	3	9	112	0.00	30.309 
16:00	20.3	14.6	20.3	54	6.3	4	12	112	0.00	30.304 
16:05	20.0	13.0	20.0	54	6.1	5	15	90	0.00	30.304 
16:10	19.9	14.1	19.9	56	6.8	4	11	112	0.00	30.304 
16:15	19.9	14.1	19.9	57	7.2	4	12	90	0.00	30.297 
16:20	19.7	13.9	19.7	58	7.3	4	12	112	0.00	30.297 
16:25	19.5	13.6	19.5	58	7.2	4	11	112	0.00	30.297 
16:30	19.4	19.4	19.4	59	7.4	3	9	112	0.00	30.294 
16:35	19.2	13.3	19.2	61	8.0	4	10	90	0.00	30.294 
16:40	19.1	19.1	19.1	61	7.9	3	11	90	0.00	30.294 
16:45	18.9	12.9	18.9	62	8.1	4	12	112	0.00	30.291 
16:50	18.8	12.8	18.8	63	8.3	4	16	112	0.00	30.291 
16:55	18.8	18.8	18.8	63	8.3	3	11	90	0.00	30.291 
17:00	18.6	18.6	18.6	64	8.5	2	8	90	0.00	30.290 
17:05	18.4	18.4	18.4	64	8.3	3	10	45	0.00	30.290 
17:10	18.1	10.7	18.1	65	8.3	5	13	112	0.00	30.290 
17:15	18.0	18.0	18.0	65	8.3	3	10	112	0.00	30.282 
17:20	17.8	11.7	17.8	65	8.1	4	11	90	0.00	30.282 
17:25	17.7	17.7	17.7	66	8.3	2	7	112	0.00	30.282 
17:30	17.7	11.6	17.7	65	8.0	4	10	112	0.00	30.298 
17:35	17.5	17.5	17.5	66	8.1	3	11	112	0.00	30.298 
17:40	17.3	17.3	17.3	66	7.9	2	13	112	0.00	30.298 
17:45	17.3	11.1	17.3	65	7.6	4	10	112	0.00	30.298 
17:50	17.3	11.1	17.3	65	7.6	4	11	90	0.00	30.298 
17:55	17.3	17.3	17.3	65	7.6	3	11	112	0.00	30.298 
18:00	17.2	8.6	17.2	63	6.8	6	13	112	0.00	30.281 
18:05	17.2	11.0	17.2	63	6.8	4	17	112	0.00	30.281 
18:10	17.2	17.2	17.2	64	7.1	3	10	90	0.00	30.281 
18:15	17.2	8.6	17.2	63	6.8	6	12	90	0.00	30.298 
18:20	17.2	17.2	17.2	64	7.1	3	11	112	0.00	30.298 
18:25	17.2	11.0	17.2	64	7.1	4	12	90	0.00	30.298 
18:30	17.2	11.0	17.2	64	7.1	4	11	90	0.00	30.295 
18:35	17.2	11.0	17.2	65	7.5	4	9	90	0.00	30.295 
18:40	17.2	17.2	17.2	65	7.5	2	6	90	0.00	30.295 
18:45	17.2	17.2	17.2	66	7.8	2	6	90	0.00	30.303 
18:50	17.2	11.0	17.2	66	7.8	4	10	112	0.00	30.303 
18:55	17.2	11.0	17.2	67	8.2	4	10	112	0.00	30.303 
19:00	17.2	11.0	17.2	67	8.2	4	10	90	0.00	30.309 
19:05	17.2	17.2	17.2	68	8.5	3	9	90	0.00	30.309 
19:10	17.2	17.2	17.2	69	8.8	3	6	112	0.00	30.309 
19:15	17.2	17.2	17.2	70	9.1	2	10	90	0.00	30.294 
19:20	17.0	17.0	17.0	70	8.9	3	11	90	0.00	30.294 
19:25	17.0	17.0	17.0	70	8.9	3	9	112	0.00	30.294 
19:30	16.9	16.9	16.9	70	8.8	3	6	90	0.00	30.286 
19:35	16.9	16.9	16.9	70	8.8	2	5	112	0.00	30.286 
19:40	16.9	10.6	16.9	70	8.8	4	9	90	0.00	30.286 
19:45	16.7	10.4	16.7	69	8.3	4	9	112	0.00	30.280 
19:50	16.7	10.4	16.7	70	8.6	4	7	90	0.00	30.280 
19:55	16.7	9.1	16.7	70	8.6	5	14	90	0.00	30.280 
20:00	16.4	8.8	16.4	70	8.4	5	14	90	0.00	30.277 
20:05	16.2	7.4	16.2	70	8.2	6	13	90	0.00	30.277 
20:10	15.9	7.1	15.9	70	7.9	6	15	112	0.00	30.277 
20:15	15.7	7.9	15.7	72	8.3	5	12	90	0.00	30.255 
20:20	15.6	7.8	15.6	73	8.5	5	14	90	0.00	30.255 
20:25	15.2	5.3	15.2	75	8.7	7	14	112	0.00	30.255 
20:30	14.9	4.9	14.9	78	9.3	7	14	112	0.00	30.248 
20:35	14.8	4.8	14.8	80	9.8	7	16	112	0.00	30.248 
20:40	14.6	6.6	14.6	81	9.9	5	10	90	0.00	30.248 
20:45	14.6	6.6	14.6	81	9.9	5	13	112	0.00	30.241 
20:50	14.6	6.6	14.6	80	9.6	5	11	90	0.00	30.241 
20:55	14.6	8.0	14.6	80	9.6	4	12	90	0.00	30.241 
21:00	14.6	6.6	14.6	80	9.6	5	12	90	0.00	30.241 
21:05	14.6	8.0	14.6	81	9.9	4	10	112	0.00	30.241 
21:10	14.4	6.4	14.4	81	9.7	5	12	112	0.00	30.241 
21:15	14.4	5.3	14.4	82	9.9	6	13	90	0.00	30.233 
21:20	14.3	6.3	14.3	83	10.1	5	12	112	0.00	30.233 
21:25	14.3	7.6	14.3	83	10.1	4	12	90	0.00	30.233 
21:30	14.3	6.3	14.3	84	10.4	5	12	90	0.00	30.241 
21:35	14.3	7.6	14.3	84	10.4	4	11	90	0.00	30.241 
21:40	14.4	7.7	14.4	84	10.5	4	9	90	0.00	30.241 
21:45	14.4	6.4	14.4	85	10.7	5	12	90	0.00	30.235 
21:50	14.4	7.7	14.4	85	10.7	4	12	112	0.00	30.235 
21:55	14.4	7.7	14.4	85	10.7	4	10	90	0.00	30.235 
22:00	14.4	7.7	14.4	85	10.7	4	10	90	0.00	30.231 
22:05	14.4	14.4	14.4	86	11.0	3	11	90	0.00	30.231 
22:10	14.6	14.6	14.6	86	11.2	2	8	90	0.00	30.231 
22:15	14.6	6.6	14.6	86	11.2	5	14	90	0.00	30.222 
22:20	14.6	14.6	14.6	86	11.2	3	10	112	0.00	30.222 
22:25	14.6	14.6	14.6	86	11.2	3	10	112	0.00	30.222 
22:30	14.6	14.6	14.6	86	11.2	3	10	112	0.00	30.211 
22:35	14.6	14.6	14.6	86	11.2	3	11	112	0.00	30.211 
22:40	14.4	6.4	14.4	86	11.0	5	13	112	0.00	30.211 
22:45	14.4	6.4	14.4	86	11.0	5	11	90	0.00	30.206 
22:50	14.4	14.4	14.4	86	11.0	3	10	90	0.00	30.206 
22:55	14.3	14.3	14.3	85	10.6	3	10	90	0.00	30.206 
23:00	14.3	6.3	14.3	85	10.6	5	12	112	0.00	30.209 
23:05	14.1	6.1	14.1	86	10.7	5	15	112	0.00	30.209 
23:10	14.1	6.1	14.1	86	10.7	5	12	112	0.00	30.209 
23:15	14.1	6.1	14.1	86	10.7	5	13	112	0.00	30.197 
23:20	14.1	6.1	14.1	86	10.7	5	13	112	0.00	30.197 
23:25	14.0	7.3	14.0	86	10.6	4	14	90	0.00	30.197 
23:30	14.0	14.0	14.0	86	10.6	3	10	90	0.00	30.190 
23:35	14.0	14.0	14.0	86	10.6	3	9	90	0.00	30.190 
23:40	14.0	5.9	14.0	86	10.6	5	12	90	0.00	30.190 
23:45	14.0	14.0	14.0	86	10.6	3	10	90	0.00	30.187 
23:50	14.0	14.0	14.0	86	10.6	2	7	90	0.00	30.187 
23:55	14.0	14.0	14.0	86	10.6	3	11	112	0.00	30.187 

CoCoRaHS
IN-AL-39
A2 Web Hosting
Creative Commons License
GoDaddy
search engine by freefind advanced

loaded 2018-11-12 15:13:06 • last modified 2010-11-18 10:43:29
Privacy PolicyDisclaimer
• wx.awcolley.com is powered by PmWiki v.2002016 •
• all content (unless otherwise noted) © 2018 A W Colley